Time,TemperatureF,DewpointF,PressureIn,WindDirection,WindDirectionDegrees,WindSpeedMPH,WindSpeedGustMPH,Humidity,HourlyPrecipIn,Conditions,Clouds,dailyrainin,SolarRadiationWatts/m^2,SoftwareType,DateUTC
2013-07-08 00:22:00,72.0,72.0,-100.00,WSW,240,2.0,8.0,100,0.29,,,1.87,0.000000,,2013-07-08 05:22:00,
2013-07-08 00:33:00,72.0,72.0,-100.00,WSW,240,2.0,8.0,100,0.29,,,1.87,0.000000,,2013-07-08 05:33:00,
2013-07-08 00:43:00,72.0,72.0,-100.00,WSW,240,2.0,8.0,100,0.29,,,1.87,0.000000,,2013-07-08 05:43:00,
2013-07-08 00:51:00,73.0,73.0,-100.00,South,170,1.0,3.0,100,0.06,,,1.69,0.000000,,2013-07-08 05:51:00,
2013-07-08 01:12:00,73.0,73.0,-100.00,South,170,1.0,3.0,100,0.06,,,1.69,0.000000,,2013-07-08 06:12:00,
2013-07-08 01:22:00,73.0,73.0,-100.00,South,170,1.0,3.0,100,0.06,,,1.69,0.000000,,2013-07-08 06:22:00,
2013-07-08 01:33:00,73.0,73.0,-100.00,South,170,1.0,3.0,100,0.06,,,1.69,0.000000,,2013-07-08 06:33:00,
2013-07-08 01:43:00,73.0,73.0,-100.00,South,170,1.0,3.0,100,0.06,,,1.69,0.000000,,2013-07-08 06:43:00,
2013-07-08 01:51:00,72.0,72.0,-100.00,West,260,1.0,5.0,100,0.00,,,1.63,0.000000,,2013-07-08 06:51:00,
2013-07-08 02:12:00,72.0,72.0,-100.00,West,260,1.0,5.0,100,0.00,,,1.63,0.000000,,2013-07-08 07:12:00,
2013-07-08 02:22:00,72.0,72.0,-100.00,West,260,1.0,5.0,100,0.00,,,1.63,0.000000,,2013-07-08 07:22:00,
2013-07-08 02:34:00,72.0,72.0,-100.00,West,260,1.0,5.0,100,0.00,,,1.63,0.000000,,2013-07-08 07:34:00,
2013-07-08 02:44:00,72.0,72.0,-100.00,West,260,1.0,5.0,100,0.00,,,1.63,0.000000,,2013-07-08 07:44:00,
2013-07-08 02:51:00,72.0,72.0,-100.00,North,0,0.0,2.0,100,0.00,,,1.63,0.000000,,2013-07-08 07:51:00,
2013-07-08 03:12:00,72.0,72.0,-100.00,North,0,0.0,2.0,100,0.00,,,1.63,0.000000,,2013-07-08 08:12:00,
2013-07-08 03:22:00,72.0,72.0,-100.00,North,0,0.0,2.0,100,0.00,,,1.63,0.000000,,2013-07-08 08:22:00,
2013-07-08 03:33:00,72.0,72.0,-100.00,North,0,0.0,2.0,100,0.00,,,1.63,0.000000,,2013-07-08 08:33:00,
2013-07-08 03:42:00,72.0,72.0,-100.00,North,0,0.0,2.0,100,0.00,,,1.63,0.000000,,2013-07-08 08:42:00,
2013-07-08 03:51:00,73.0,73.0,-100.00,ENE,58,0.0,2.0,100,0.00,,,1.63,0.000000,,2013-07-08 08:51:00,
2013-07-08 04:11:00,73.0,73.0,-100.00,ENE,58,0.0,2.0,100,0.00,,,1.63,0.000000,,2013-07-08 09:11:00,
2013-07-08 04:22:00,73.0,73.0,-100.00,ENE,58,0.0,2.0,100,0.00,,,1.63,0.000000,,2013-07-08 09:22:00,
2013-07-08 04:34:00,73.0,73.0,-100.00,ENE,58,0.0,2.0,100,0.00,,,1.63,0.000000,,2013-07-08 09:34:00,
2013-07-08 04:43:00,73.0,73.0,-100.00,ENE,58,0.0,2.0,100,0.00,,,1.63,0.000000,,2013-07-08 09:43:00,
2013-07-08 04:51:00,73.0,73.0,-100.00,East,81,1.0,3.0,100,0.00,,,1.63,0.000000,,2013-07-08 09:51:00,
2013-07-08 05:11:00,73.0,73.0,-100.00,East,81,1.0,3.0,100,0.00,,,1.63,0.000000,,2013-07-08 10:11:00,
2013-07-08 05:22:00,73.0,73.0,-100.00,East,81,1.0,3.0,100,0.00,,,1.63,0.000000,,2013-07-08 10:22:00,
2013-07-08 05:34:00,73.0,73.0,-100.00,East,81,1.0,3.0,100,0.00,,,1.63,0.000000,,2013-07-08 10:34:00,
2013-07-08 05:43:00,73.0,73.0,-100.00,East,81,1.0,3.0,100,0.00,,,1.63,0.000000,,2013-07-08 10:43:00,
2013-07-08 05:51:00,73.0,73.0,-100.00,East,94,1.0,3.0,100,0.01,,,1.64,0.000000,,2013-07-08 10:51:00,
2013-07-08 06:11:00,73.0,73.0,-100.00,East,94,1.0,3.0,100,0.01,,,1.64,0.000000,,2013-07-08 11:11:00,
2013-07-08 06:23:00,73.0,73.0,-100.00,East,94,1.0,3.0,100,0.01,,,1.64,0.000000,,2013-07-08 11:23:00,
2013-07-08 06:33:00,73.0,73.0,-100.00,East,94,1.0,3.0,100,0.01,,,1.64,0.000000,,2013-07-08 11:33:00,
2013-07-08 06:43:00,73.0,73.0,-100.00,East,94,1.0,3.0,100,0.01,,,1.64,0.000000,,2013-07-08 11:43:00,
2013-07-08 06:51:00,73.0,73.0,-100.00,NW,313,0.0,2.0,100,0.00,,,1.64,9.000000,,2013-07-08 11:51:00,
2013-07-08 07:11:00,73.0,73.0,-100.00,NW,313,0.0,2.0,100,0.00,,,1.64,9.000000,,2013-07-08 12:11:00,
2013-07-08 07:22:00,73.0,73.0,-100.00,NW,313,0.0,2.0,100,0.00,,,1.64,9.000000,,2013-07-08 12:22:00,
2013-07-08 07:34:00,73.0,73.0,-100.00,NW,313,0.0,2.0,100,0.00,,,1.64,9.000000,,2013-07-08 12:34:00,
2013-07-08 07:43:00,73.0,73.0,-100.00,NW,313,0.0,2.0,100,0.00,,,1.64,9.000000,,2013-07-08 12:43:00,
2013-07-08 07:51:00,75.0,75.0,-100.00,NE,55,0.0,3.0,100,0.00,,,1.64,68.000000,,2013-07-08 12:51:00,
2013-07-08 08:22:00,75.0,75.0,-100.00,NE,55,0.0,3.0,100,0.00,,,1.64,68.000000,,2013-07-08 13:22:00,
2013-07-08 08:33:00,75.0,75.0,-100.00,NE,55,0.0,3.0,100,0.00,,,1.64,68.000000,,2013-07-08 13:33:00,
2013-07-08 08:42:00,75.0,75.0,-100.00,NE,55,0.0,3.0,100,0.00,,,1.64,68.000000,,2013-07-08 13:42:00,
2013-07-08 08:51:00,76.0,76.0,-100.00,NNW,329,0.0,2.0,100,0.00,,,1.64,143.000000,,2013-07-08 13:51:00,
2013-07-08 09:12:00,76.0,76.0,-100.00,NNW,329,0.0,2.0,100,0.00,,,1.64,143.000000,,2013-07-08 14:12:00,
2013-07-08 09:22:00,76.0,76.0,-100.00,NNW,329,0.0,2.0,100,0.00,,,1.64,143.000000,,2013-07-08 14:22:00,
2013-07-08 09:34:00,76.0,76.0,-100.00,NNW,329,0.0,2.0,100,0.00,,,1.64,143.000000,,2013-07-08 14:34:00,
2013-07-08 09:43:00,76.0,76.0,-100.00,NNW,329,0.0,2.0,100,0.00,,,1.64,143.000000,,2013-07-08 14:43:00,
2013-07-08 09:51:00,81.0,76.0,-100.00,SE,134,2.0,4.0,86,0.00,,,0.92,253.000000,,2013-07-08 14:51:00,
2013-07-08 10:22:00,81.0,76.0,-100.00,SE,134,2.0,4.0,86,0.00,,,0.92,253.000000,,2013-07-08 15:22:00,
2013-07-08 10:33:00,81.0,76.0,-100.00,SE,134,2.0,4.0,86,0.00,,,0.92,253.000000,,2013-07-08 15:33:00,
2013-07-08 10:43:00,81.0,76.0,-100.00,SE,134,2.0,4.0,86,0.00,,,0.92,253.000000,,2013-07-08 15:43:00,
2013-07-08 10:51:00,84.0,77.0,-100.00,SE,128,4.0,6.0,79,0.00,,,0.89,431.000000,,2013-07-08 15:51:00,
2013-07-08 11:22:00,84.0,77.0,-100.00,SE,128,4.0,6.0,79,0.00,,,0.89,431.000000,,2013-07-08 16:22:00,
2013-07-08 11:33:00,84.0,77.0,-100.00,SE,128,4.0,6.0,79,0.00,,,0.89,431.000000,,2013-07-08 16:33:00,
2013-07-08 11:43:00,84.0,77.0,-100.00,SE,128,4.0,6.0,79,0.00,,,0.89,431.000000,,2013-07-08 16:43:00,
2013-07-08 11:51:00,85.0,75.0,-100.00,South,187,3.0,7.0,73,0.00,,,0.89,546.000000,,2013-07-08 16:51:00,
2013-07-08 12:28:00,85.0,75.0,-100.00,South,187,3.0,7.0,73,0.00,,,0.89,546.000000,,2013-07-08 17:28:00,
2013-07-08 12:37:00,85.0,75.0,-100.00,South,187,3.0,7.0,73,0.00,,,0.89,546.000000,,2013-07-08 17:37:00,
2013-07-08 12:46:00,85.0,75.0,-100.00,South,187,3.0,7.0,73,0.00,,,0.89,546.000000,,2013-07-08 17:46:00,
2013-07-08 12:51:00,81.0,78.0,-100.00,South,177,4.0,9.0,91,0.06,,,0.95,254.000000,,2013-07-08 17:51:00,
2013-07-08 13:23:00,81.0,78.0,-100.00,South,177,4.0,9.0,91,0.06,,,0.95,254.000000,,2013-07-08 18:23:00,
2013-07-08 13:33:00,81.0,78.0,-100.00,South,177,4.0,9.0,91,0.06,,,0.95,254.000000,,2013-07-08 18:33:00,
2013-07-08 13:43:00,81.0,78.0,-100.00,South,177,4.0,9.0,91,0.06,,,0.95,254.000000,,2013-07-08 18:43:00,
2013-07-08 13:50:00,81.0,78.0,-100.00,South,177,4.0,9.0,91,0.06,,,0.95,254.000000,,2013-07-08 18:50:00,
2013-07-08 13:51:00,81.0,74.0,-100.00,South,177,4.0,11.0,80,0.00,,,0.95,478.000000,,2013-07-08 18:51:00,
2013-07-08 14:32:00,81.0,74.0,-100.00,South,177,4.0,11.0,80,0.00,,,0.95,478.000000,,2013-07-08 19:32:00,
2013-07-08 14:38:00,81.0,74.0,-100.00,South,177,4.0,11.0,80,0.00,,,0.95,478.000000,,2013-07-08 19:38:00,
2013-07-08 15:43:00,76.0,75.0,-100.00,SSE,156,7.0,13.0,96,0.15,,,1.10,174.000000,,2013-07-08 20:43:00,
2013-07-08 15:50:00,76.0,75.0,-100.00,SSE,156,7.0,13.0,96,0.15,,,1.10,174.000000,,2013-07-08 20:50:00,
2013-07-08 15:51:00,76.0,76.0,-100.00,NW,307,0.0,9.0,100,0.11,,,1.21,31.000000,,2013-07-08 20:51:00,
2013-07-08 16:32:00,76.0,76.0,-100.00,NW,307,0.0,9.0,100,0.11,,,1.21,31.000000,,2013-07-08 21:32:00,
2013-07-08 16:51:00,76.0,76.0,-100.00,West,272,1.0,3.0,100,0.00,,,1.21,29.000000,,2013-07-08 21:51:00,
2013-07-08 17:22:00,76.0,76.0,-100.00,West,272,1.0,3.0,100,0.00,,,1.21,29.000000,,2013-07-08 22:22:00,
2013-07-08 17:43:00,76.0,76.0,-100.00,West,272,1.0,3.0,100,0.00,,,1.21,29.000000,,2013-07-08 22:43:00,
2013-07-08 17:51:00,77.0,77.0,-100.00,SSE,167,0.0,3.0,100,0.01,,,1.22,87.000000,,2013-07-08 22:51:00,
2013-07-08 18:44:00,77.0,77.0,-100.00,SSE,167,0.0,3.0,100,0.01,,,1.22,87.000000,,2013-07-08 23:44:00,
2013-07-08 18:51:00,77.0,77.0,-100.00,West,264,0.0,2.0,100,0.00,,,1.22,59.000000,,2013-07-08 23:51:00,
2013-07-08 19:42:00,77.0,77.0,-100.00,West,264,0.0,2.0,100,0.00,,,1.22,59.000000,,2013-07-09 00:42:00,
2013-07-08 20:51:00,75.0,75.0,-100.00,SSE,156,0.0,0.0,100,0.00,,,1.22,1.000000,,2013-07-09 01:51:00,
2013-07-08 22:23:00,74.0,74.0,-100.00,North,1,0.0,0.0,100,0.00,,,1.22,0.000000,,2013-07-09 03:23:00,
2013-07-08 22:32:00,74.0,74.0,-100.00,North,1,0.0,0.0,100,0.00,,,1.22,0.000000,,2013-07-09 03:32:00,
2013-07-08 22:51:00,74.0,74.0,-100.00,SE,139,0.0,0.0,100,0.00,,,0.69,0.000000,,2013-07-09 03:51:00,
2013-07-08 23:11:00,74.0,74.0,-100.00,SE,139,0.0,0.0,100,0.00,,,0.69,0.000000,,2013-07-09 04:11:00,
2013-07-08 23:22:00,74.0,74.0,-100.00,SE,139,0.0,0.0,100,0.00,,,0.69,0.000000,,2013-07-09 04:22:00,
2013-07-08 23:34:00,74.0,74.0,-100.00,SE,139,0.0,0.0,100,0.00,,,0.69,0.000000,,2013-07-09 04:34:00,
2013-07-08 23:42:00,74.0,74.0,-100.00,SE,139,0.0,0.0,100,0.00,,,0.69,0.000000,,2013-07-09 04:42:00,
2013-07-08 23:51:00,74.0,74.0,-100.00,SE,133,0.0,0.0,100,0.00,,,0.40,0.000000,,2013-07-09 04:51:00,